Myra Eckstein — WDF9473 — position and weather

sailwx.info

Track history (hours):
 
Tides and Currents Weather Stations Pressure Air Temp Water Temp Dewpoint Dewpoint Depression Visibility Wind Speed Wind Dir Waves Ship Positions

Myra Eckstein

Owner: Marquette Transportation Co. LLC, Paducah, KY. More information available from US FCC via Universal Licensing System and Coast Guard Vessel Documentation Center.

Last reported at 2017-Oct-10 14:49 UTC. Time now 2017-Oct-17 03:44 UTC.
Position N 32°40' W 091°07'.

Length 47 m; draft 3 m.

Type: Towing. MMSI: 367505510.

Date/timePositionNaut miles runAvg speedWind from/ knotsBaromVisibWave heightAir tempDewpointWater temp
2017-Oct-10 14:49N 32°40' W 091°07'3 3.6
2017-Oct-10 14:00N 32°38' W 091°09'2 4.5
2017-Oct-10 13:30N 32°36' W 091°08'0 0.1
2017-Oct-10 10:56N 32°35' W 091°08'1 2.0
2017-Oct-10 10:17N 32°35' W 091°07'1 4.7
2017-Oct-10 10:00N 32°34' W 091°06'2 4.9
2017-Oct-10 09:30N 32°31' W 091°06'3 5.7
2017-Oct-10 09:00N 32°28' W 091°07'2 3.9
2017-Oct-10 08:30N 32°27' W 091°05'0 0.0
2017-Oct-10 08:00N 32°27' W 091°05'0 0.1
2017-Oct-10 07:30N 32°27' W 091°05'2 4.9
2017-Oct-10 07:00N 32°26' W 091°02'2 4.8
2017-Oct-10 06:30N 32°25' W 090°60'2 4.8
2017-Oct-10 06:00N 32°23' W 091°00'2 4.8
2017-Oct-10 05:31N 32°21' W 090°58'3 5.1
2017-Oct-10 05:00N 32°21' W 090°55'2 3.9
2017-Oct-10 04:30N 32°19' W 090°54'1 2.2
2017-Oct-10 04:01N 32°18' W 090°55'2 4.1
2017-Oct-10 03:30N 32°17' W 090°57'2 4.7
2017-Oct-10 03:00N 32°15' W 090°59'3 5.4
2017-Oct-10 02:31N 32°12' W 090°59'2 3.4
2017-Oct-10 02:01N 32°10' W 090°60'2 4.9
2017-Oct-10 01:30N 32°08' W 091°00'2 4.6
2017-Oct-10 01:00N 32°07' W 091°03'2 1.7
2017-Oct-09 23:47N 32°08' W 091°05'1 4.9
2017-Oct-09 23:30N 32°07' W 091°07'5 5.1
2017-Oct-09 22:31N 32°03' W 091°03'0 5.5
2017-Oct-09 22:30N 32°03' W 091°03'3 6.0
2017-Oct-09 22:00N 32°00' W 091°05'  
2017-Oct-03 10:38N 31°59' W 091°09'1 8.7
2017-Oct-03 10:29N 31°59' W 091°07'4 7.9
2017-Oct-03 09:58N 32°02' W 091°04'4 7.2
2017-Oct-03 09:29N 32°05' W 091°05'2 5.1
2017-Oct-03 09:00N 32°08' W 091°06'2 4.3
2017-Oct-03 08:30N 32°08' W 091°04'3 6.6
2017-Oct-03 08:00N 32°09' W 091°00'5 9.0
2017-Oct-03 07:30N 32°13' W 090°59'4 8.6
2017-Oct-03 07:00N 32°17' W 090°57'4 7.9
2017-Oct-03 06:30N 32°20' W 090°54'4 7.1
2017-Oct-03 06:00N 32°21' W 090°58'3 5.8
2017-Oct-03 05:30N 32°23' W 090°60'3 6.2
2017-Oct-03 05:01N 32°26' W 091°02'4 7.3
2017-Oct-03 04:30N 32°27' W 091°06'4 7.5
2017-Oct-03 04:01N 32°31' W 091°06'4 7.7
2017-Oct-03 03:30N 32°35' W 091°07'5 7.7
2017-Oct-03 02:55N 32°39' W 091°09'  
Track history (hours):
 
Tides and Currents Weather Stations Pressure Air Temp Water Temp Dewpoint Dewpoint Depression Visibility Wind Speed Wind Dir Waves Ship Positions

Myra Eckstein

Owner: Marquette Transportation Co. LLC, Paducah, KY. More information available from US FCC via Universal Licensing System and Coast Guard Vessel Documentation Center.

Last reported at 2017-Oct-10 14:49 UTC. Time now 2017-Oct-17 03:44 UTC.
Position N 32°40' W 091°07'.

Length 47 m; draft 3 m.

Type: Towing. MMSI: 367505510.

Date/timePositionNaut miles runAvg speedWind from/ knotsBaromVisibWave heightAir tempDewpointWater temp
2017-Oct-10 14:49N 32°40' W 091°07'3 3.6
2017-Oct-10 14:00N 32°38' W 091°09'2 4.5
2017-Oct-10 13:30N 32°36' W 091°08'0 0.1
2017-Oct-10 10:56N 32°35' W 091°08'1 2.0
2017-Oct-10 10:17N 32°35' W 091°07'1 4.7
2017-Oct-10 10:00N 32°34' W 091°06'2 4.9
2017-Oct-10 09:30N 32°31' W 091°06'3 5.7
2017-Oct-10 09:00N 32°28' W 091°07'2 3.9
2017-Oct-10 08:30N 32°27' W 091°05'0 0.0
2017-Oct-10 08:00N 32°27' W 091°05'0 0.1
2017-Oct-10 07:30N 32°27' W 091°05'2 4.9
2017-Oct-10 07:00N 32°26' W 091°02'2 4.8
2017-Oct-10 06:30N 32°25' W 090°60'2 4.8
2017-Oct-10 06:00N 32°23' W 091°00'2 4.8
2017-Oct-10 05:31N 32°21' W 090°58'3 5.1
2017-Oct-10 05:00N 32°21' W 090°55'2 3.9
2017-Oct-10 04:30N 32°19' W 090°54'1 2.2
2017-Oct-10 04:01N 32°18' W 090°55'2 4.1
2017-Oct-10 03:30N 32°17' W 090°57'2 4.7
2017-Oct-10 03:00N 32°15' W 090°59'3 5.4
2017-Oct-10 02:31N 32°12' W 090°59'2 3.4
2017-Oct-10 02:01N 32°10' W 090°60'2 4.9
2017-Oct-10 01:30N 32°08' W 091°00'2 4.6
2017-Oct-10 01:00N 32°07' W 091°03'2 1.7
2017-Oct-09 23:47N 32°08' W 091°05'1 4.9
2017-Oct-09 23:30N 32°07' W 091°07'5 5.1
2017-Oct-09 22:31N 32°03' W 091°03'0 5.5
2017-Oct-09 22:30N 32°03' W 091°03'3 6.0
2017-Oct-09 22:00N 32°00' W 091°05'  
2017-Oct-03 10:38N 31°59' W 091°09'1 8.7
2017-Oct-03 10:29N 31°59' W 091°07'4 7.9
2017-Oct-03 09:58N 32°02' W 091°04'4 7.2
2017-Oct-03 09:29N 32°05' W 091°05'2 5.1
2017-Oct-03 09:00N 32°08' W 091°06'2 4.3
2017-Oct-03 08:30N 32°08' W 091°04'3 6.6
2017-Oct-03 08:00N 32°09' W 091°00'5 9.0
2017-Oct-03 07:30N 32°13' W 090°59'4 8.6
2017-Oct-03 07:00N 32°17' W 090°57'4 7.9
2017-Oct-03 06:30N 32°20' W 090°54'4 7.1
2017-Oct-03 06:00N 32°21' W 090°58'3 5.8
2017-Oct-03 05:30N 32°23' W 090°60'3 6.2
2017-Oct-03 05:01N 32°26' W 091°02'4 7.3
2017-Oct-03 04:30N 32°27' W 091°06'4 7.5
2017-Oct-03 04:01N 32°31' W 091°06'4 7.7
2017-Oct-03 03:30N 32°35' W 091°07'5 7.7
2017-Oct-03 02:55N 32°39' W 091°09'  

Dump ship's entire track history